createdAt,value
2018-06-28T00:00:22.663Z,0.00
2018-06-28T00:01:22.601Z,0.00
2018-06-28T00:02:22.537Z,0.00
2018-06-28T00:05:04.776Z,0.00
2018-06-28T00:07:46.772Z,0.00
2018-06-28T00:08:46.707Z,0.00
2018-06-28T00:09:46.616Z,0.00
2018-06-28T00:10:46.533Z,0.00
2018-06-28T00:11:46.446Z,0.00
2018-06-28T00:12:46.391Z,0.00
2018-06-28T00:13:46.284Z,0.00
2018-06-28T00:14:46.226Z,0.00
2018-06-28T00:15:46.130Z,0.00
2018-06-28T00:16:46.057Z,0.00
2018-06-28T00:17:46.006Z,0.00
2018-06-28T00:18:45.913Z,0.00
2018-06-28T00:19:45.814Z,0.00
2018-06-28T00:20:45.752Z,0.00
2018-06-28T00:21:45.667Z,0.00
2018-06-28T00:22:45.607Z,0.00
2018-06-28T00:23:45.510Z,0.00
2018-06-28T00:24:45.448Z,0.00
2018-06-28T00:25:45.346Z,0.00
2018-06-28T00:28:27.274Z,0.00
2018-06-28T00:29:27.228Z,0.00
2018-06-28T00:30:27.110Z,0.00
2018-06-28T00:31:27.034Z,0.00
2018-06-28T00:32:26.950Z,0.00
2018-06-28T00:33:26.912Z,0.00
2018-06-28T00:34:26.790Z,0.00
2018-06-28T00:35:26.732Z,0.00
2018-06-28T00:36:26.629Z,0.00
2018-06-28T00:37:26.557Z,0.00
2018-06-28T00:38:26.494Z,0.00
2018-06-28T00:39:26.578Z,0.00
2018-06-28T00:40:26.329Z,0.00
2018-06-28T00:41:26.272Z,0.00
2018-06-28T00:42:26.159Z,0.00
2018-06-28T00:43:27.125Z,0.00
2018-06-28T00:44:26.038Z,0.00
2018-06-28T00:45:25.954Z,0.00
2018-06-28T00:46:25.854Z,0.00
2018-06-28T00:47:25.790Z,0.00
2018-06-28T00:48:25.691Z,0.00
2018-06-28T00:49:25.645Z,0.00
2018-06-28T00:50:25.540Z,0.00
2018-06-28T00:51:25.482Z,0.00
2018-06-28T00:52:25.383Z,0.00
2018-06-28T00:53:25.315Z,0.00
2018-06-28T00:54:25.249Z,0.00
2018-06-28T00:55:25.154Z,0.00
2018-06-28T00:56:25.072Z,0.00
2018-06-28T00:59:07.286Z,0.00
2018-06-28T01:00:28.177Z,0.00
2018-06-28T01:01:07.114Z,0.00
2018-06-28T01:02:07.033Z,0.00
2018-06-28T01:03:06.967Z,0.00
2018-06-28T01:04:06.916Z,0.00
2018-06-28T01:05:06.817Z,0.00
2018-06-28T01:06:06.730Z,0.00
2018-06-28T01:07:06.655Z,0.00
2018-06-28T01:08:06.563Z,0.00
2018-06-28T01:09:06.524Z,0.00
2018-06-28T01:10:06.413Z,0.00
2018-06-28T01:11:06.352Z,0.00
2018-06-28T01:12:06.261Z,0.00
2018-06-28T01:13:06.187Z,0.00
2018-06-28T01:14:06.097Z,0.00
2018-06-28T01:15:06.052Z,0.00
2018-06-28T01:16:05.951Z,0.00
2018-06-28T01:17:05.878Z,0.00
2018-06-28T01:18:05.803Z,0.00
2018-06-28T01:19:05.707Z,0.00
2018-06-28T01:20:05.658Z,0.00
2018-06-28T01:21:05.569Z,0.00
2018-06-28T01:22:05.501Z,0.00
2018-06-28T01:23:05.400Z,0.00
2018-06-28T01:24:05.316Z,0.00
2018-06-28T01:25:05.270Z,0.00
2018-06-28T01:26:05.175Z,0.00
2018-06-28T01:27:06.107Z,0.00
2018-06-28T01:28:05.009Z,0.00
2018-06-28T01:29:04.927Z,0.00
2018-06-28T01:30:04.845Z,0.00
2018-06-28T01:32:46.799Z,0.00
2018-06-28T01:33:46.719Z,0.00
2018-06-28T01:34:46.624Z,0.00
2018-06-28T01:35:46.559Z,0.00
2018-06-28T01:36:46.487Z,0.00
2018-06-28T01:37:46.429Z,0.00
2018-06-28T01:38:46.305Z,0.00
2018-06-28T01:39:46.344Z,0.00
2018-06-28T01:40:46.162Z,0.00
2018-06-28T01:41:46.092Z,0.00
2018-06-28T01:42:46.010Z,0.00
2018-06-28T01:45:28.310Z,0.00
2018-06-28T01:46:49.254Z,0.00
2018-06-28T01:47:28.126Z,0.00
2018-06-28T01:48:28.052Z,0.00
2018-06-28T01:49:27.994Z,0.00
2018-06-28T01:50:27.902Z,0.00
2018-06-28T01:51:27.828Z,0.00
2018-06-28T01:54:09.802Z,0.00
2018-06-28T01:55:09.715Z,0.00
2018-06-28T01:56:09.624Z,0.00
2018-06-28T01:57:09.563Z,0.00
2018-06-28T01:58:09.481Z,0.00
2018-06-28T02:00:34.306Z,0.00
2018-06-28T02:01:34.213Z,0.00
2018-06-28T02:02:34.135Z,0.00
2018-06-28T02:03:34.093Z,0.00
2018-06-28T02:04:34.008Z,0.00
2018-06-28T02:05:33.910Z,0.00
2018-06-28T02:06:33.811Z,0.00
2018-06-28T02:07:33.746Z,0.00
2018-06-28T02:08:33.651Z,0.00
2018-06-28T02:09:33.593Z,0.00
2018-06-28T02:10:33.530Z,0.00
2018-06-28T02:11:33.427Z,0.00
2018-06-28T02:12:33.348Z,0.00
2018-06-28T02:13:33.311Z,0.00
2018-06-28T02:14:33.193Z,0.00
2018-06-28T02:17:15.301Z,0.00
2018-06-28T02:18:16.232Z,0.00
2018-06-28T02:19:15.130Z,0.00
2018-06-28T02:20:15.054Z,0.00
2018-06-28T02:21:14.978Z,0.00
2018-06-28T02:23:56.821Z,0.00
2018-06-28T02:24:56.724Z,0.00
2018-06-28T02:25:56.629Z,0.00
2018-06-28T02:26:56.560Z,0.00
2018-06-28T02:27:56.499Z,0.00
2018-06-28T02:28:57.419Z,0.00
2018-06-28T02:29:56.328Z,0.00
2018-06-28T02:30:56.275Z,0.00
2018-06-28T02:31:56.196Z,0.00
2018-06-28T02:34:38.315Z,0.00
2018-06-28T02:35:38.222Z,0.00
2018-06-28T02:36:38.147Z,0.00
2018-06-28T02:37:38.064Z,0.00
2018-06-28T02:38:38.005Z,0.00
2018-06-28T02:39:37.923Z,0.00
2018-06-28T02:40:37.843Z,0.00
2018-06-28T02:41:37.759Z,0.00
2018-06-28T02:42:37.677Z,0.00
2018-06-28T02:43:37.620Z,0.00
2018-06-28T02:44:37.508Z,0.00
2018-06-28T02:47:19.839Z,0.00
2018-06-28T02:50:01.824Z,0.00
2018-06-28T02:52:43.861Z,0.00
2018-06-28T02:53:43.845Z,0.00
2018-06-28T02:54:43.986Z,0.00
2018-06-28T02:55:44.442Z,0.00
2018-06-28T02:56:43.805Z,0.00
2018-06-28T02:57:43.419Z,0.00
2018-06-28T02:58:43.330Z,0.00
2018-06-28T02:59:43.250Z,0.00
2018-06-28T03:00:43.198Z,0.00
2018-06-28T03:01:43.182Z,0.00
2018-06-28T03:02:43.013Z,0.00
2018-06-28T03:03:42.943Z,0.00
2018-06-28T03:04:42.855Z,0.00
2018-06-28T03:05:42.782Z,0.00
2018-06-28T03:06:42.711Z,0.00
2018-06-28T03:07:42.628Z,0.00
2018-06-28T03:08:42.541Z,0.00
2018-06-28T03:11:24.828Z,5.63
2018-06-28T03:12:24.760Z,5.63
2018-06-28T03:13:24.650Z,5.63
2018-06-28T03:14:24.580Z,5.63
2018-06-28T03:15:24.502Z,5.63
2018-06-28T03:16:24.436Z,5.63
2018-06-28T03:17:24.345Z,5.63
2018-06-28T03:18:24.256Z,5.63
2018-06-28T03:19:24.172Z,11.25
2018-06-28T03:20:24.108Z,11.25
2018-06-28T03:21:24.049Z,11.25
2018-06-28T03:22:23.966Z,11.25
2018-06-28T03:23:23.864Z,11.25
2018-06-28T03:24:23.790Z,11.25
2018-06-28T03:25:23.714Z,16.88
2018-06-28T03:26:23.650Z,16.88
2018-06-28T03:27:23.599Z,16.88
2018-06-28T03:28:23.476Z,16.88
2018-06-28T03:29:23.392Z,16.88
2018-06-28T03:30:23.321Z,22.50
2018-06-28T03:31:23.239Z,22.50
2018-06-28T03:32:23.162Z,22.50
2018-06-28T03:33:23.219Z,22.50
2018-06-28T03:36:05.362Z,28.13
2018-06-28T03:37:05.247Z,28.13
2018-06-28T03:38:05.384Z,28.13
2018-06-28T03:39:05.094Z,33.75
2018-06-28T03:40:04.992Z,33.75
2018-06-28T03:41:04.921Z,33.75
2018-06-28T03:42:04.853Z,39.38
2018-06-28T03:43:04.794Z,39.38
2018-06-28T03:44:04.700Z,39.38
2018-06-28T03:45:04.631Z,39.38
2018-06-28T03:46:04.519Z,45.00
2018-06-28T03:47:04.453Z,45.00
2018-06-28T03:48:04.401Z,45.00
2018-06-28T03:50:46.323Z,50.63
2018-06-28T03:51:46.259Z,50.63
2018-06-28T03:52:46.165Z,50.63
2018-06-28T03:53:46.120Z,56.25
2018-06-28T03:54:46.006Z,56.25
2018-06-28T03:55:45.928Z,56.25
2018-06-28T03:56:45.852Z,56.25
2018-06-28T03:57:45.770Z,61.88
2018-06-28T03:58:45.701Z,61.88
2018-06-28T03:59:45.621Z,61.88
2018-06-28T04:00:45.548Z,67.50
2018-06-28T04:01:45.490Z,67.50
2018-06-28T04:02:45.369Z,67.50
2018-06-28T04:03:45.330Z,67.50
2018-06-28T04:04:45.218Z,73.13
2018-06-28T04:05:45.147Z,73.13
2018-06-28T04:06:45.056Z,73.13
2018-06-28T04:07:44.989Z,73.13
2018-06-28T04:08:44.924Z,78.75
2018-06-28T04:09:44.822Z,78.75
2018-06-28T04:10:44.736Z,78.75
2018-06-28T04:11:44.672Z,84.38
2018-06-28T04:12:44.680Z,84.38
2018-06-28T04:13:44.558Z,84.38
2018-06-28T04:14:44.442Z,84.38
2018-06-28T04:15:44.356Z,90.00
2018-06-28T04:16:44.334Z,90.00
2018-06-28T04:17:44.202Z,90.00
2018-06-28T04:18:44.403Z,90.00
2018-06-28T04:19:44.034Z,95.63
2018-06-28T04:20:43.954Z,95.63
2018-06-28T04:23:25.844Z,101.25
2018-06-28T04:24:25.777Z,101.25
2018-06-28T04:25:25.675Z,101.25
2018-06-28T04:28:07.839Z,106.88
2018-06-28T04:29:07.764Z,106.88
2018-06-28T04:30:07.696Z,106.88
2018-06-28T04:31:07.694Z,112.50
2018-06-28T04:32:07.527Z,112.50
2018-06-28T04:33:07.511Z,112.50
2018-06-28T04:34:07.368Z,118.13
2018-06-28T04:35:07.343Z,118.13
2018-06-28T04:36:07.199Z,118.13
2018-06-28T04:38:49.433Z,123.75
2018-06-28T04:39:49.288Z,123.75
2018-06-28T04:40:49.184Z,123.75
2018-06-28T04:44:33.368Z,129.38
2018-06-28T04:45:33.275Z,135.00
2018-06-28T04:46:33.223Z,135.00
2018-06-28T04:47:33.095Z,135.00
2018-06-28T04:48:33.033Z,135.00
2018-06-28T04:49:32.970Z,140.63
2018-06-28T04:50:32.912Z,140.63
2018-06-28T04:51:32.811Z,140.63
2018-06-28T04:52:32.708Z,146.25
2018-06-28T04:53:32.621Z,146.25
2018-06-28T04:54:32.578Z,157.50
2018-06-28T04:55:32.465Z,163.13
2018-06-28T04:56:32.392Z,174.38
2018-06-28T04:57:32.329Z,174.38
2018-06-28T04:58:32.242Z,191.25
2018-06-28T04:59:32.183Z,196.88
2018-06-28T05:00:33.112Z,213.75
2018-06-28T05:01:32.019Z,219.38
2018-06-28T05:04:14.350Z,663.75
2018-06-28T05:05:15.288Z,697.50
2018-06-28T05:06:14.178Z,337.50
2018-06-28T05:08:56.378Z,185.63
2018-06-28T05:09:56.281Z,180.00
2018-06-28T05:10:56.196Z,180.00
2018-06-28T05:13:38.339Z,180.00
2018-06-28T05:14:38.267Z,180.00
2018-06-28T05:15:38.270Z,180.00
2018-06-28T05:16:38.113Z,180.00
2018-06-28T05:17:38.084Z,180.00
2018-06-28T05:18:38.069Z,180.00
2018-06-28T05:19:37.873Z,180.00
2018-06-28T05:20:38.821Z,180.00
2018-06-28T05:21:37.731Z,180.00
2018-06-28T05:24:19.854Z,185.63
2018-06-28T05:27:01.858Z,185.63
2018-06-28T05:29:43.894Z,191.25
2018-06-28T05:30:43.786Z,191.25
2018-06-28T05:31:43.706Z,191.25
2018-06-28T05:34:25.886Z,196.88
2018-06-28T05:39:03.848Z,202.50
2018-06-28T05:41:45.874Z,202.50
2018-06-28T05:43:06.754Z,202.50
2018-06-28T05:43:45.723Z,202.50
2018-06-28T05:44:45.622Z,202.50
2018-06-28T05:45:45.562Z,202.50
2018-06-28T05:46:46.488Z,202.50
2018-06-28T05:47:45.377Z,208.13
2018-06-28T05:48:45.320Z,208.13
2018-06-28T05:49:45.225Z,208.13
2018-06-28T05:50:45.152Z,208.13
2018-06-28T05:51:45.080Z,208.13
2018-06-28T05:54:27.579Z,213.75
2018-06-28T05:55:27.303Z,213.75
2018-06-28T05:56:27.191Z,213.75
2018-06-28T05:57:28.140Z,213.75
2018-06-28T05:58:27.041Z,213.75
2018-06-28T05:59:26.977Z,213.75
2018-06-28T06:00:26.920Z,213.75
2018-06-28T06:01:26.858Z,213.75
2018-06-28T06:02:26.791Z,213.75
2018-06-28T06:03:26.683Z,219.38
2018-06-28T06:04:26.571Z,219.38
2018-06-28T06:05:26.500Z,219.38
2018-06-28T06:06:26.449Z,225.00
2018-06-28T06:07:26.361Z,225.00
2018-06-28T06:08:26.279Z,225.00
2018-06-28T06:11:08.352Z,230.63
2018-06-28T06:12:08.366Z,230.63
2018-06-28T06:13:08.227Z,230.63
2018-06-28T06:14:08.166Z,230.63
2018-06-28T06:15:08.053Z,230.63
2018-06-28T06:16:08.065Z,236.25
2018-06-28T06:17:07.903Z,236.25
2018-06-28T06:18:07.914Z,236.25
2018-06-28T06:19:07.733Z,236.25
2018-06-28T06:21:49.869Z,241.88
2018-06-28T06:22:49.941Z,241.88
2018-06-28T06:23:49.732Z,247.50
2018-06-28T06:24:49.713Z,247.50
2018-06-28T06:25:49.552Z,253.13
2018-06-28T06:26:49.477Z,253.13
2018-06-28T06:27:49.411Z,258.75
2018-06-28T06:28:49.327Z,264.38
2018-06-28T06:29:49.249Z,264.38
2018-06-28T06:30:49.167Z,270.00
2018-06-28T06:31:49.106Z,281.25
2018-06-28T06:32:49.074Z,309.38
2018-06-28T06:33:48.989Z,618.75
2018-06-28T06:34:48.871Z,1074.38
2018-06-28T06:35:48.786Z,1456.88
2018-06-28T06:36:50.710Z,1569.38
2018-06-28T06:37:48.636Z,1726.88
2018-06-28T06:38:48.591Z,1811.25
2018-06-28T06:39:48.510Z,1794.38
2018-06-28T06:42:30.387Z,1845.00
2018-06-28T06:45:12.399Z,1906.88
2018-06-28T06:50:12.761Z,2103.75
2018-06-28T06:51:11.626Z,2176.88
2018-06-28T06:52:11.545Z,2137.50
2018-06-28T06:53:11.427Z,2137.50
2018-06-28T06:55:53.452Z,2109.38
2018-06-28T06:58:35.394Z,2137.50
2018-06-28T06:59:36.435Z,2356.88
2018-06-28T07:00:35.309Z,2508.75
2018-06-28T07:01:35.201Z,2486.25
2018-06-28T07:02:35.096Z,2233.13
2018-06-28T07:03:35.056Z,2356.88
2018-06-28T07:04:34.973Z,2694.38
2018-06-28T07:07:16.939Z,2266.88
2018-06-28T07:10:58.826Z,1811.25
2018-06-28T07:11:58.736Z,1552.50
2018-06-28T07:12:58.695Z,1468.13
2018-06-28T07:16:39.905Z,1473.75
2018-06-28T07:17:38.812Z,1428.75
2018-06-28T07:18:38.753Z,1344.38
2018-06-28T07:19:38.677Z,1096.88
2018-06-28T07:20:38.666Z,1074.38
2018-06-28T07:21:38.550Z,1344.38
2018-06-28T07:24:20.384Z,1170.00
2018-06-28T07:25:20.321Z,1186.88
2018-06-28T07:26:20.267Z,1209.38
2018-06-28T07:29:02.434Z,1141.88
2018-06-28T07:38:20.895Z,1074.38
2018-06-28T07:39:20.792Z,1085.63
2018-06-28T07:40:20.718Z,1096.88
2018-06-28T07:41:20.666Z,1136.25
2018-06-28T07:42:20.631Z,1209.38
2018-06-28T07:43:20.527Z,1231.88
2018-06-28T07:44:20.442Z,1293.75
2018-06-28T07:45:20.425Z,1361.25
2018-06-28T07:46:20.313Z,1946.25
2018-06-28T07:47:20.285Z,2812.50
2018-06-28T07:48:20.180Z,3532.50
2018-06-28T07:49:20.167Z,3751.88
2018-06-28T07:50:20.045Z,3858.75
2018-06-28T07:53:01.935Z,3920.63
2018-06-28T07:54:01.838Z,3825.00
2018-06-28T07:55:01.811Z,3780.00
2018-06-28T07:57:43.901Z,1906.88
2018-06-28T07:58:43.874Z,3785.63
2018-06-28T07:59:43.795Z,3150.00
2018-06-28T08:00:43.696Z,3870.00
2018-06-28T08:01:43.648Z,3836.25
2018-06-28T08:04:25.954Z,3594.38
2018-06-28T08:05:25.841Z,3690.00
2018-06-28T08:26:05.515Z,3825.00
2018-06-28T08:27:05.428Z,4072.50
2018-06-28T08:28:05.377Z,3988.13
2018-06-28T08:29:05.286Z,3476.25
2018-06-28T08:30:05.236Z,3105.00
2018-06-28T08:31:05.195Z,3735.00
2018-06-28T08:32:05.098Z,4190.63
2018-06-28T08:33:05.041Z,4320.00
2018-06-28T08:34:04.978Z,4230.00
2018-06-28T08:35:04.912Z,4100.63
2018-06-28T08:36:04.886Z,4263.75
2018-06-28T08:37:04.761Z,4280.63
2018-06-28T08:38:04.703Z,4269.38
2018-06-28T08:40:50.968Z,4128.75
2018-06-28T08:41:50.965Z,3684.38
2018-06-28T08:44:32.943Z,4140.00
2018-06-28T08:47:15.000Z,4241.25
2018-06-28T08:49:56.924Z,4320.00
2018-06-28T08:50:56.986Z,4342.50
2018-06-28T08:51:56.866Z,4336.88
2018-06-28T08:54:38.927Z,4500.00
2018-06-28T08:55:38.893Z,4471.88
2018-06-28T08:56:38.816Z,3701.25
2018-06-28T08:57:38.792Z,4545.00
2018-06-28T08:58:38.660Z,4393.13
2018-06-28T08:59:38.612Z,4061.25
2018-06-28T09:00:38.538Z,4061.25
2018-06-28T09:01:38.506Z,4449.38
2018-06-28T09:02:38.413Z,4533.75
2018-06-28T09:05:20.467Z,4398.75
2018-06-28T09:06:20.399Z,4432.50
2018-06-28T09:07:20.436Z,4539.38
2018-06-28T09:08:20.262Z,4511.25
2018-06-28T09:09:20.192Z,4511.25
2018-06-28T09:11:09.074Z,4545.00
2018-06-28T09:11:20.104Z,4573.13
2018-06-28T09:12:19.977Z,4500.00
2018-06-28T09:13:20.932Z,4539.38
2018-06-28T09:14:19.848Z,4601.25
2018-06-28T09:15:19.871Z,4629.38
2018-06-28T09:16:19.716Z,4528.13
2018-06-28T09:19:01.961Z,4528.13
2018-06-28T09:20:01.877Z,4786.88
2018-06-28T09:21:01.856Z,4651.88
2018-06-28T09:23:43.986Z,4089.38
2018-06-28T09:24:43.913Z,4460.63
2018-06-28T09:25:43.819Z,4590.00
2018-06-28T09:28:25.952Z,4736.25
2018-06-28T09:29:25.893Z,4612.50
2018-06-28T09:30:25.810Z,4455.00
2018-06-28T09:31:25.746Z,4443.75
2018-06-28T09:32:25.667Z,4325.63
2018-06-28T09:33:25.637Z,4404.38
2018-06-28T09:34:25.542Z,4651.88
2018-06-28T09:35:25.512Z,4725.00
2018-06-28T09:36:25.409Z,4561.88
2018-06-28T09:37:25.360Z,4573.13
2018-06-28T09:38:25.322Z,4725.00
2018-06-28T09:41:07.447Z,4612.50
2018-06-28T09:43:49.466Z,4741.88
2018-06-28T09:46:31.445Z,4730.63
2018-06-28T09:49:13.465Z,4263.75
2018-06-28T09:50:13.388Z,4730.63
2018-06-28T09:51:13.311Z,4826.25
2018-06-28T09:52:13.278Z,4792.50
2018-06-28T09:53:13.219Z,4854.38
2018-06-28T09:54:13.153Z,4944.38
2018-06-28T09:55:13.067Z,4905.00
2018-06-28T09:56:13.024Z,4674.38
2018-06-28T09:57:12.946Z,4668.75
2018-06-28T09:58:12.882Z,4635.00
2018-06-28T09:59:12.848Z,4758.75
2018-06-28T10:00:12.836Z,4404.38
2018-06-28T10:01:12.694Z,4421.25
2018-06-28T10:03:54.944Z,4674.38
2018-06-28T10:04:55.918Z,4657.50
2018-06-28T10:05:54.819Z,4848.75
2018-06-28T10:06:54.785Z,4876.88
2018-06-28T10:07:54.701Z,4888.13
2018-06-28T10:08:54.636Z,4882.50
2018-06-28T10:09:54.686Z,4950.00
2018-06-28T10:10:54.546Z,4798.13
2018-06-28T10:11:54.469Z,4865.63
2018-06-28T10:12:54.393Z,5073.75
2018-06-28T10:13:54.315Z,4989.38
2018-06-28T10:14:55.301Z,4826.25
2018-06-28T10:15:54.190Z,4848.75
2018-06-28T10:16:54.151Z,4775.63
2018-06-28T10:17:54.078Z,5040.00
2018-06-28T10:18:54.056Z,4820.63
2018-06-28T10:19:53.967Z,5040.00
2018-06-28T10:20:53.905Z,4758.75
2018-06-28T10:21:53.846Z,3645.00
2018-06-28T10:22:53.765Z,3954.38
2018-06-28T10:23:53.702Z,4258.13
2018-06-28T10:26:35.963Z,4899.38
2018-06-28T10:27:35.910Z,4786.88
2018-06-28T10:28:35.859Z,4719.38
2018-06-28T10:29:35.777Z,4702.50
2018-06-28T10:30:35.719Z,4719.38
2018-06-28T10:31:35.653Z,4629.38
2018-06-28T10:32:35.637Z,4522.50
2018-06-28T10:33:35.535Z,4860.00
2018-06-28T10:34:35.452Z,4702.50
2018-06-28T10:35:35.433Z,4269.38
2018-06-28T10:36:35.348Z,4533.75
2018-06-28T10:37:35.278Z,2311.88
2018-06-28T10:38:35.247Z,4550.63
2018-06-28T10:41:17.502Z,4207.50
2018-06-28T10:42:17.412Z,4696.88
2018-06-28T10:43:17.342Z,4809.38
2018-06-28T10:44:17.284Z,5135.63
2018-06-28T10:45:17.235Z,4905.00
2018-06-28T10:46:17.194Z,4815.00
2018-06-28T10:47:17.147Z,4758.75
2018-06-28T10:49:58.995Z,4888.13
2018-06-28T10:50:58.920Z,4325.63
2018-06-28T10:51:58.853Z,4725.00
2018-06-28T10:52:59.494Z,4837.50
2018-06-28T10:53:58.753Z,4798.13
2018-06-28T10:54:58.707Z,4882.50
2018-06-28T10:55:58.599Z,4747.50
2018-06-28T10:56:58.559Z,3116.25
2018-06-28T10:57:58.467Z,3723.75
2018-06-28T10:58:58.410Z,4657.50
2018-06-28T10:59:58.368Z,4477.50
2018-06-28T11:00:58.290Z,4365.00
2018-06-28T11:01:58.229Z,4387.50
2018-06-28T11:02:58.171Z,4500.00
2018-06-28T11:03:58.110Z,4685.63
2018-06-28T11:04:58.030Z,4736.25
2018-06-28T11:05:57.980Z,4573.13
2018-06-28T11:06:57.917Z,4230.00
2018-06-28T11:07:57.850Z,4314.38
2018-06-28T11:08:57.874Z,4190.63
2018-06-28T11:09:57.722Z,4230.00
2018-06-28T11:10:57.689Z,4365.00
2018-06-28T11:11:57.606Z,4438.13
2018-06-28T11:12:57.538Z,4477.50
2018-06-28T11:13:57.494Z,4415.63
2018-06-28T11:14:57.477Z,2992.50
2018-06-28T11:17:40.526Z,4410.00
2018-06-28T11:18:39.456Z,4381.88
2018-06-28T11:21:21.497Z,4140.00
2018-06-28T11:22:21.437Z,4168.13
2018-06-28T11:23:21.376Z,3313.13
2018-06-28T11:24:21.309Z,2649.38
2018-06-28T11:25:21.294Z,2182.50
2018-06-28T11:26:22.194Z,2424.38
2018-06-28T11:27:21.114Z,2705.63
2018-06-28T11:28:22.072Z,3948.75
2018-06-28T11:29:21.054Z,3948.75
2018-06-28T11:30:20.936Z,3718.13
2018-06-28T11:31:20.948Z,3740.63
2018-06-28T11:32:20.811Z,3864.38
2018-06-28T11:33:20.733Z,3909.38
2018-06-28T11:34:20.665Z,3774.38
2018-06-28T11:35:20.611Z,3712.50
2018-06-28T11:36:20.626Z,4055.63
2018-06-28T11:40:44.490Z,4471.88
2018-06-28T11:41:44.473Z,4297.50
2018-06-28T11:42:44.367Z,3971.25
2018-06-28T11:43:44.297Z,4033.13
2018-06-28T11:44:44.233Z,3819.38
2018-06-28T11:45:44.191Z,3881.25
2018-06-28T11:46:44.114Z,1906.88
2018-06-28T11:47:44.051Z,4055.63
2018-06-28T11:48:43.974Z,4230.00
2018-06-28T11:51:25.993Z,4393.13
2018-06-28T11:52:25.949Z,4128.75
2018-06-28T11:53:25.867Z,3954.38
2018-06-28T11:56:07.995Z,3892.50
2018-06-28T11:58:50.007Z,883.13
2018-06-28T11:59:49.933Z,444.38
2018-06-28T12:00:49.870Z,416.25
2018-06-28T12:01:49.809Z,399.38
2018-06-28T12:02:49.750Z,393.75
2018-06-28T12:03:49.676Z,399.38
2018-06-28T12:04:49.605Z,388.13
2018-06-28T12:07:31.529Z,360.00
2018-06-28T12:10:13.494Z,365.63
2018-06-28T12:12:55.526Z,354.38
2018-06-28T12:13:55.424Z,348.75
2018-06-28T12:14:55.350Z,348.75
2018-06-28T12:17:37.512Z,348.75
2018-06-28T12:18:37.445Z,343.13
2018-06-28T12:19:37.356Z,331.88
2018-06-28T12:20:37.299Z,343.13
2018-06-28T12:21:37.223Z,343.13
2018-06-28T12:24:19.513Z,331.88
2018-06-28T12:25:19.435Z,326.25
2018-06-28T12:26:19.351Z,326.25
2018-06-28T12:27:19.283Z,326.25
2018-06-28T12:28:19.230Z,320.63
2018-06-28T12:29:19.142Z,320.63
2018-06-28T12:30:19.088Z,320.63
2018-06-28T12:31:19.012Z,315.00
2018-06-28T12:32:18.929Z,315.00
2018-06-28T12:33:18.907Z,315.00
